createdAt,value
2018-09-24T00:01:02.043Z,92.16
2018-09-24T00:03:30.989Z,92.30
2018-09-24T00:05:59.944Z,93.58
2018-09-24T00:08:28.904Z,93.76
2018-09-24T00:10:57.916Z,94.00
2018-09-24T00:13:26.848Z,93.78
2018-09-24T00:15:56.017Z,94.48
2018-09-24T00:18:24.951Z,94.41
2018-09-24T00:20:53.944Z,95.19
2018-09-24T00:23:22.993Z,94.80
2018-09-24T00:25:51.997Z,95.35
2018-09-24T00:28:20.964Z,95.60
2018-09-24T00:30:49.916Z,94.79
2018-09-24T00:33:18.880Z,95.27
2018-09-24T00:35:47.877Z,95.79
2018-09-24T00:38:16.836Z,95.96
2018-09-24T00:40:45.780Z,96.89
2018-09-24T00:43:14.885Z,96.39
2018-09-24T00:45:43.839Z,96.48
2018-09-24T00:48:12.793Z,96.60
2018-09-24T00:50:41.815Z,95.78
2018-09-24T00:53:10.773Z,96.21
2018-09-24T00:55:39.719Z,96.63
2018-09-24T00:58:08.659Z,96.69
2018-09-24T01:00:37.730Z,96.25
2018-09-24T01:03:06.715Z,96.53
2018-09-24T01:05:35.737Z,96.03
2018-09-24T01:08:04.706Z,96.66
2018-09-24T01:10:33.630Z,97.34
2018-09-24T01:13:02.628Z,96.10
2018-09-24T01:15:31.617Z,97.04
2018-09-24T01:18:00.572Z,96.68
2018-09-24T01:20:29.508Z,97.31
2018-09-24T01:22:58.467Z,98.07
2018-09-24T01:25:27.403Z,98.23
2018-09-24T01:27:56.483Z,97.73
2018-09-24T01:30:25.422Z,97.89
2018-09-24T01:32:54.377Z,98.56
2018-09-24T01:35:23.360Z,99.14
2018-09-24T01:37:52.499Z,98.72
2018-09-24T01:40:21.446Z,98.30
2018-09-24T01:42:50.372Z,98.57
2018-09-24T01:45:19.313Z,99.43
2018-09-24T01:47:48.261Z,98.72
2018-09-24T01:50:17.238Z,99.90
2018-09-24T01:52:46.167Z,98.73
2018-09-24T01:55:15.141Z,99.00
2018-09-24T01:57:44.097Z,99.27
2018-09-24T02:00:13.051Z,98.80
2018-09-24T02:02:41.990Z,98.09
2018-09-24T02:05:16.566Z,98.52
2018-09-24T02:07:45.572Z,98.10
2018-09-24T02:10:14.631Z,97.62
2018-09-24T02:12:43.594Z,97.47
2018-09-24T02:15:12.596Z,97.83
2018-09-24T02:17:41.616Z,97.52
2018-09-24T02:20:10.540Z,97.39
2018-09-24T02:22:39.488Z,97.02
2018-09-24T02:25:08.435Z,96.96
2018-09-24T02:27:37.367Z,97.42
2018-09-24T02:30:06.590Z,96.53
2018-09-24T02:32:35.527Z,96.95
2018-09-24T02:35:04.570Z,97.21
2018-09-24T02:37:33.575Z,97.04
2018-09-24T02:40:02.568Z,96.81
2018-09-24T02:42:31.504Z,97.65
2018-09-24T02:45:00.520Z,97.16
2018-09-24T02:47:33.381Z,97.67
2018-09-24T02:50:03.472Z,97.71
2018-09-24T02:52:32.467Z,98.18
2018-09-24T02:55:01.409Z,98.29
2018-09-24T02:57:30.431Z,97.59
2018-09-24T02:59:59.440Z,97.09
2018-09-24T03:02:28.454Z,97.35
2018-09-24T03:04:57.452Z,97.04
2018-09-24T03:07:26.436Z,96.44
2018-09-24T03:09:55.407Z,96.95
2018-09-24T03:12:24.339Z,97.19
2018-09-24T03:14:53.296Z,96.07
2018-09-24T03:17:22.340Z,96.08
2018-09-24T03:19:51.285Z,96.63
2018-09-24T03:22:22.862Z,96.46
2018-09-24T03:24:52.407Z,96.80
2018-09-24T03:27:21.962Z,96.74
2018-09-24T03:29:50.918Z,97.44
2018-09-24T03:32:19.867Z,96.99
2018-09-24T03:34:48.830Z,97.00
2018-09-24T03:37:17.859Z,96.31
2018-09-24T03:39:46.899Z,96.31
2018-09-24T03:42:15.844Z,96.02
2018-09-24T03:44:44.790Z,95.97
2018-09-24T03:47:13.787Z,95.33
2018-09-24T03:49:42.734Z,94.25
2018-09-24T03:52:11.681Z,95.11
2018-09-24T03:54:40.599Z,95.04
2018-09-24T03:57:09.561Z,95.60
2018-09-24T03:59:38.511Z,95.23
2018-09-24T04:02:07.508Z,96.11
2018-09-24T04:04:41.614Z,94.77
2018-09-24T04:07:15.771Z,96.46
2018-09-24T04:09:50.013Z,96.21
2018-09-24T04:12:24.054Z,96.60
2018-09-24T04:14:57.946Z,97.04
2018-09-24T04:17:31.982Z,96.52
2018-09-24T04:20:05.854Z,96.71
2018-09-24T04:22:39.971Z,96.22
2018-09-24T04:25:13.853Z,96.68
2018-09-24T04:27:48.022Z,96.98
2018-09-24T04:30:22.009Z,96.72
2018-09-24T04:32:56.043Z,95.87
2018-09-24T04:35:30.013Z,95.36
2018-09-24T04:38:04.020Z,95.07
2018-09-24T04:40:38.002Z,95.08
2018-09-24T04:43:12.107Z,95.33
2018-09-24T04:45:46.034Z,94.55
2018-09-24T04:48:20.209Z,94.55
2018-09-24T04:50:54.283Z,93.69
2018-09-24T04:53:28.266Z,93.19
2018-09-24T04:56:02.421Z,91.51
2018-09-24T04:58:36.486Z,91.41
2018-09-24T05:01:10.506Z,90.23
2018-09-24T05:03:44.526Z,88.45
2018-09-24T05:06:18.478Z,88.73
2018-09-24T05:08:52.489Z,86.23
2018-09-24T05:11:26.547Z,82.64
2018-09-24T05:14:00.625Z,81.24
2018-09-24T05:16:34.728Z,80.51
2018-09-24T05:19:08.731Z,78.66
2018-09-24T05:21:42.770Z,78.44
2018-09-24T05:24:16.889Z,77.05
2018-09-24T05:26:50.903Z,75.48
2018-09-24T05:29:24.958Z,76.17
2018-09-24T05:31:58.954Z,73.54
2018-09-24T05:34:33.006Z,75.16
2018-09-24T05:37:06.903Z,75.72
2018-09-24T05:39:41.104Z,75.48
2018-09-24T05:42:15.173Z,74.40
2018-09-24T05:44:49.297Z,74.92
2018-09-24T05:47:23.335Z,73.51
2018-09-24T05:49:57.327Z,73.87
2018-09-24T05:52:31.300Z,74.00
2018-09-24T05:55:05.458Z,73.28
2018-09-24T05:57:39.430Z,70.42
2018-09-24T06:00:13.490Z,70.52
2018-09-24T06:02:47.518Z,69.32
2018-09-24T06:05:21.504Z,68.62
2018-09-24T06:07:55.551Z,64.66
2018-09-24T06:10:29.483Z,65.19
2018-09-24T06:13:03.492Z,62.35
2018-09-24T06:15:37.580Z,60.50
2018-09-24T06:18:11.598Z,58.10
2018-09-24T06:20:45.529Z,58.22
2018-09-24T06:23:19.439Z,57.45
2018-09-24T06:25:53.444Z,55.64
2018-09-24T06:28:27.332Z,57.13
2018-09-24T06:31:01.315Z,58.01
2018-09-24T06:33:35.328Z,56.77
2018-09-24T06:36:09.481Z,57.74
2018-09-24T06:38:43.421Z,56.04
2018-09-24T06:41:17.468Z,58.95
2018-09-24T06:43:51.423Z,58.53
2018-09-24T06:46:25.403Z,59.24
2018-09-24T06:48:59.487Z,58.84
2018-09-24T06:51:33.591Z,57.40
2018-09-24T06:54:07.536Z,53.13
2018-09-24T06:56:41.492Z,53.61
2018-09-24T06:59:15.435Z,51.25
2018-09-24T07:01:49.501Z,48.96
2018-09-24T07:04:23.487Z,47.65
2018-09-24T07:06:57.466Z,46.72
2018-09-24T07:09:31.334Z,47.52
2018-09-24T07:12:05.395Z,50.96
2018-09-24T07:14:39.403Z,50.10
2018-09-24T07:17:13.388Z,50.01
2018-09-24T07:19:47.230Z,48.93
2018-09-24T07:22:21.308Z,49.76
2018-09-24T07:24:55.349Z,51.04
2018-09-24T07:27:29.542Z,51.37
2018-09-24T07:30:03.647Z,52.11
2018-09-24T07:32:37.751Z,53.79
2018-09-24T07:35:11.718Z,51.34
2018-09-24T07:37:45.756Z,49.55
2018-09-24T07:40:19.737Z,50.41
2018-09-24T07:42:53.778Z,49.26
2018-09-24T07:45:27.945Z,49.59
2018-09-24T07:48:02.119Z,49.00
2018-09-24T07:50:36.052Z,49.55
2018-09-24T07:53:09.921Z,47.38
2018-09-24T07:55:43.946Z,48.41
2018-09-24T07:58:17.912Z,47.46
2018-09-24T08:00:51.845Z,47.82
2018-09-24T08:03:25.749Z,47.99
2018-09-24T08:05:59.667Z,46.75
2018-09-24T08:08:33.589Z,47.27
2018-09-24T08:11:07.526Z,47.00
2018-09-24T08:13:41.476Z,47.62
2018-09-24T08:16:15.372Z,48.08
2018-09-24T08:18:49.300Z,48.06
2018-09-24T08:21:23.291Z,48.03
2018-09-24T08:23:57.245Z,46.92
2018-09-24T08:26:31.180Z,47.80
2018-09-24T08:29:05.142Z,47.87
2018-09-24T08:31:39.009Z,47.73
2018-09-24T08:34:12.931Z,48.11
2018-09-24T08:36:46.846Z,46.97
2018-09-24T08:39:20.783Z,45.62
2018-09-24T08:41:54.690Z,44.33
2018-09-24T08:44:28.652Z,44.07
2018-09-24T08:47:02.648Z,41.91
2018-09-24T08:49:36.583Z,42.27
2018-09-24T08:52:10.482Z,41.57
2018-09-24T08:54:44.506Z,41.35
2018-09-24T08:57:18.612Z,41.06
2018-09-24T08:59:52.453Z,40.53
2018-09-24T09:02:26.353Z,41.05
2018-09-24T09:05:00.235Z,40.88
2018-09-24T09:07:34.244Z,40.48
2018-09-24T09:10:08.352Z,38.58
2018-09-24T09:12:42.260Z,38.07
2018-09-24T09:15:16.469Z,38.16
2018-09-24T09:17:50.377Z,38.78
2018-09-24T09:20:24.353Z,38.54
2018-09-24T09:22:58.304Z,37.65
2018-09-24T09:25:32.248Z,37.55
2018-09-24T09:28:06.403Z,36.58
2018-09-24T09:30:40.269Z,36.34
2018-09-24T09:33:14.177Z,36.38
2018-09-24T09:35:48.271Z,37.22
2018-09-24T09:38:22.220Z,36.86
2018-09-24T09:40:56.260Z,37.48
2018-09-24T09:43:30.146Z,36.06
2018-09-24T09:46:04.077Z,36.14
2018-09-24T09:48:38.090Z,35.84
2018-09-24T09:51:12.196Z,34.73
2018-09-24T09:53:46.189Z,34.95
2018-09-24T09:56:20.167Z,33.27
2018-09-24T09:58:54.131Z,33.99
2018-09-24T10:01:28.038Z,32.34
2018-09-24T10:04:02.044Z,33.57
2018-09-24T10:06:36.004Z,32.76
2018-09-24T10:09:11.746Z,31.50
2018-09-24T10:11:45.814Z,31.03
2018-09-24T10:14:19.871Z,31.40
2018-09-24T10:16:53.803Z,30.10
2018-09-24T10:19:27.934Z,29.26
2018-09-24T10:22:02.139Z,30.36
2018-09-24T10:24:36.272Z,29.40
2018-09-24T10:27:10.169Z,28.76
2018-09-24T10:29:44.231Z,29.63
2018-09-24T10:32:18.284Z,28.03
2018-09-24T10:34:52.155Z,29.11
2018-09-24T10:37:26.188Z,29.40
2018-09-24T10:40:00.169Z,29.61
2018-09-24T10:42:34.142Z,28.70
2018-09-24T10:45:08.049Z,27.96
2018-09-24T10:47:42.122Z,28.19
2018-09-24T10:50:16.131Z,27.96
2018-09-24T10:52:50.063Z,28.60
2018-09-24T10:55:24.244Z,27.55
2018-09-24T10:57:58.190Z,27.47
2018-09-24T11:00:32.251Z,27.78
2018-09-24T11:03:06.209Z,26.99
2018-09-24T11:05:40.159Z,27.22
2018-09-24T11:08:14.084Z,25.35
2018-09-24T11:10:48.148Z,24.89
2018-09-24T11:13:22.261Z,24.81
2018-09-24T11:15:56.403Z,24.42
2018-09-24T11:18:30.245Z,23.72
2018-09-24T11:21:04.158Z,22.73
2018-09-24T11:23:38.152Z,23.42
2018-09-24T11:26:12.104Z,23.65
2018-09-24T11:28:46.007Z,23.87
2018-09-24T11:31:19.920Z,24.40
2018-09-24T11:33:53.939Z,23.71
2018-09-24T11:36:28.075Z,23.99
2018-09-24T11:39:02.068Z,22.93
2018-09-24T11:41:36.016Z,23.46
2018-09-24T11:44:09.925Z,23.82
2018-09-24T11:46:43.850Z,23.66
2018-09-24T11:49:17.743Z,24.95
2018-09-24T11:51:51.870Z,24.78
2018-09-24T11:54:25.931Z,25.36
2018-09-24T11:56:59.810Z,26.55
2018-09-24T11:59:33.681Z,26.48
2018-09-24T12:02:07.745Z,25.59
2018-09-24T12:04:41.672Z,24.53
2018-09-24T12:07:15.537Z,25.31
2018-09-24T12:09:49.675Z,27.24
2018-09-24T12:12:23.786Z,24.94
2018-09-24T12:14:57.845Z,25.72
2018-09-24T12:17:31.959Z,25.92
2018-09-24T12:20:06.011Z,25.90
2018-09-24T12:22:40.069Z,26.30
2018-09-24T12:25:13.984Z,27.58
2018-09-24T12:27:47.853Z,29.57
2018-09-24T12:30:21.746Z,30.96
2018-09-24T12:32:55.657Z,30.91
2018-09-24T12:35:29.615Z,32.56
2018-09-24T12:38:03.548Z,33.41
2018-09-24T12:40:37.700Z,34.60
2018-09-24T12:43:11.743Z,34.54
2018-09-24T12:45:45.731Z,35.23
2018-09-24T12:48:19.871Z,36.32
2018-09-24T12:50:53.971Z,36.02
2018-09-24T12:53:28.096Z,36.98
2018-09-24T12:56:02.055Z,36.36
2018-09-24T12:58:35.937Z,36.91
2018-09-24T13:01:09.908Z,36.98
2018-09-24T13:03:43.839Z,36.15
2018-09-24T13:06:17.769Z,36.96
2018-09-24T13:08:51.665Z,37.11
2018-09-24T13:11:25.578Z,37.64
2018-09-24T13:13:59.523Z,38.41
2018-09-24T13:16:33.381Z,38.34
2018-09-24T13:19:07.307Z,36.89
2018-09-24T13:21:41.327Z,38.54
2018-09-24T13:24:15.275Z,39.15
2018-09-24T13:26:49.197Z,38.81
2018-09-24T13:29:23.264Z,39.73
2018-09-24T13:31:57.229Z,40.11
2018-09-24T13:34:31.666Z,40.74
2018-09-24T13:37:05.632Z,42.10
2018-09-24T13:39:39.503Z,41.61
2018-09-24T13:42:13.521Z,41.43
2018-09-24T13:44:47.598Z,41.98
2018-09-24T13:47:21.489Z,43.00
2018-09-24T13:49:55.436Z,44.03
2018-09-24T13:52:29.390Z,43.89
2018-09-24T13:55:03.332Z,44.55
2018-09-24T13:57:37.451Z,45.10
2018-09-24T14:00:12.292Z,45.55
2018-09-24T14:02:46.171Z,45.30
2018-09-24T14:05:20.027Z,45.73
2018-09-24T14:07:53.915Z,46.53
2018-09-24T14:10:27.773Z,46.94
2018-09-24T14:13:01.923Z,46.02
2018-09-24T14:15:35.969Z,46.70
2018-09-24T14:18:09.933Z,47.82
2018-09-24T14:20:43.875Z,47.47
2018-09-24T14:23:17.793Z,47.20
2018-09-24T14:25:51.841Z,47.82
2018-09-24T14:28:25.813Z,47.15
2018-09-24T14:30:59.883Z,46.99
2018-09-24T14:33:33.856Z,47.37
2018-09-24T14:36:07.984Z,46.56
2018-09-24T14:38:41.970Z,46.05
2018-09-24T14:41:15.982Z,46.86
2018-09-24T14:43:50.078Z,46.77
2018-09-24T14:46:24.144Z,46.65
2018-09-24T14:48:58.247Z,47.80
2018-09-24T14:51:32.278Z,48.02
2018-09-24T14:54:06.263Z,46.70
2018-09-24T14:56:40.407Z,47.16
2018-09-24T14:59:14.449Z,47.31
2018-09-24T15:01:48.451Z,48.45
2018-09-24T15:04:22.408Z,47.31
2018-09-24T15:06:56.328Z,48.24
2018-09-24T15:09:30.339Z,48.27
2018-09-24T15:12:04.360Z,48.10
2018-09-24T15:14:38.287Z,48.96
2018-09-24T15:17:12.182Z,50.00
2018-09-24T15:19:46.227Z,49.59
2018-09-24T15:22:20.326Z,49.69
2018-09-24T15:24:54.399Z,49.67
2018-09-24T15:27:28.466Z,50.00
2018-09-24T15:30:02.473Z,49.54
2018-09-24T15:32:36.489Z,49.93
2018-09-24T15:35:11.283Z,50.19
2018-09-24T15:37:45.363Z,49.79
2018-09-24T15:40:19.377Z,51.07
2018-09-24T15:42:53.338Z,50.82
2018-09-24T15:45:27.233Z,51.85
2018-09-24T15:48:01.125Z,51.51
2018-09-24T15:50:35.075Z,51.70
2018-09-24T15:53:08.927Z,52.23
2018-09-24T15:55:43.192Z,52.85
2018-09-24T15:58:17.237Z,53.27
2018-09-24T16:00:51.094Z,52.96
2018-09-24T16:03:25.115Z,54.18
2018-09-24T16:05:59.051Z,54.55
2018-09-24T16:08:33.072Z,54.08
2018-09-24T16:11:07.056Z,53.91
2018-09-24T16:13:41.106Z,54.64
2018-09-24T16:16:15.271Z,54.46
2018-09-24T16:18:49.327Z,54.69
2018-09-24T16:21:23.363Z,54.53
2018-09-24T16:23:57.417Z,54.79
2018-09-24T16:26:31.381Z,55.12
2018-09-24T16:29:05.313Z,55.71
2018-09-24T16:31:39.511Z,55.60
2018-09-24T16:34:13.464Z,56.03
2018-09-24T16:36:47.510Z,56.10
2018-09-24T16:39:21.528Z,55.81
2018-09-24T16:41:55.407Z,56.83
2018-09-24T16:44:29.298Z,55.66
2018-09-24T16:47:03.411Z,56.27
2018-09-24T16:49:37.515Z,56.88
2018-09-24T16:52:11.398Z,57.95
2018-09-24T16:54:45.437Z,57.29
2018-09-24T16:57:19.323Z,56.46
2018-09-24T16:59:53.313Z,56.80
2018-09-24T17:02:27.283Z,56.47
2018-09-24T17:05:01.179Z,56.69
2018-09-24T17:07:35.108Z,56.89
2018-09-24T17:10:09.161Z,58.01
2018-09-24T17:12:43.075Z,56.80
2018-09-24T17:15:17.075Z,57.50
2018-09-24T17:17:51.096Z,57.43
2018-09-24T17:20:25.162Z,57.93
2018-09-24T17:22:59.039Z,58.27
2018-09-24T17:25:33.096Z,58.51
2018-09-24T17:28:07.249Z,58.46
2018-09-24T17:30:41.381Z,58.57
2018-09-24T17:33:15.233Z,59.09
2018-09-24T17:35:49.319Z,59.29
2018-09-24T17:38:23.176Z,58.45
2018-09-24T17:40:57.102Z,58.64
2018-09-24T17:43:31.176Z,59.07
2018-09-24T17:46:05.297Z,58.68
2018-09-24T17:48:39.441Z,59.39
2018-09-24T17:51:13.540Z,59.38
2018-09-24T17:53:47.643Z,59.26
2018-09-24T17:56:21.684Z,59.45
2018-09-24T17:58:55.667Z,59.38
2018-09-24T18:01:29.779Z,60.21
2018-09-24T18:04:03.755Z,59.92
2018-09-24T18:06:37.726Z,59.88
2018-09-24T18:09:12.590Z,60.55
2018-09-24T18:11:46.913Z,60.75
2018-09-24T18:14:20.810Z,60.85
2018-09-24T18:16:54.652Z,61.89
2018-09-24T18:19:28.512Z,61.10
2018-09-24T18:22:02.515Z,61.41
2018-09-24T18:24:36.729Z,61.59
2018-09-24T18:27:10.740Z,61.51
2018-09-24T18:29:44.751Z,62.87
2018-09-24T18:32:18.801Z,62.77
2018-09-24T18:34:52.745Z,62.43
2018-09-24T18:37:26.821Z,62.48
2018-09-24T18:40:00.834Z,62.76
2018-09-24T18:42:34.708Z,63.14
2018-09-24T18:45:08.715Z,63.01
2018-09-24T18:47:42.779Z,63.50
2018-09-24T18:50:16.648Z,63.01
2018-09-24T18:52:50.505Z,63.51
2018-09-24T18:55:24.534Z,63.21
2018-09-24T18:57:58.512Z,63.44
2018-09-24T19:00:32.394Z,62.38
2018-09-24T19:03:06.382Z,63.37
2018-09-24T19:05:40.207Z,62.43
2018-09-24T19:08:14.225Z,63.31
2018-09-24T19:10:48.191Z,63.26
2018-09-24T19:13:22.345Z,62.85
2018-09-24T19:15:56.413Z,62.65
2018-09-24T19:18:30.521Z,63.27
2018-09-24T19:21:04.483Z,62.50
2018-09-24T19:23:38.488Z,62.55
2018-09-24T19:26:12.810Z,62.62
2018-09-24T19:28:46.640Z,62.37
2018-09-24T19:31:20.591Z,63.18
2018-09-24T19:33:54.686Z,63.11
2018-09-24T19:36:28.758Z,63.19
2018-09-24T19:39:02.727Z,63.87
2018-09-24T19:41:36.633Z,63.02
2018-09-24T19:44:10.530Z,62.93
2018-09-24T19:46:44.465Z,63.91
2018-09-24T19:49:18.383Z,63.54
2018-09-24T19:51:52.315Z,64.80
2018-09-24T19:54:26.532Z,65.69
2018-09-24T19:57:00.537Z,65.32
2018-09-24T19:59:34.531Z,65.92
2018-09-24T20:02:08.515Z,66.69
2018-09-24T20:04:42.477Z,66.40
2018-09-24T20:07:16.343Z,66.42
2018-09-24T20:09:50.366Z,67.08
2018-09-24T20:12:24.333Z,67.01
2018-09-24T20:14:58.297Z,66.69
2018-09-24T20:17:32.495Z,66.40
2018-09-24T20:20:06.514Z,66.18
2018-09-24T20:22:40.430Z,69.80
2018-09-24T20:25:14.358Z,71.56
2018-09-24T20:27:48.423Z,71.94
2018-09-24T20:30:22.466Z,71.63
2018-09-24T20:32:56.374Z,71.94
2018-09-24T20:35:30.411Z,70.81
2018-09-24T20:38:04.396Z,68.50
2018-09-24T20:40:38.361Z,68.41
2018-09-24T20:43:12.361Z,68.13
2018-09-24T20:45:46.465Z,67.91
2018-09-24T20:48:20.493Z,68.80
2018-09-24T20:50:54.597Z,68.09
2018-09-24T20:53:28.516Z,68.66
2018-09-24T20:56:02.509Z,69.21
2018-09-24T20:58:36.529Z,70.47
2018-09-24T21:01:10.521Z,70.56
2018-09-24T21:03:44.402Z,71.89
2018-09-24T21:06:18.388Z,71.99
2018-09-24T21:08:52.310Z,71.79
2018-09-24T21:11:26.299Z,72.44
2018-09-24T21:14:00.206Z,73.50
2018-09-24T21:16:34.173Z,73.30
2018-09-24T21:19:08.160Z,73.49
2018-09-24T21:21:42.090Z,73.09
2018-09-24T21:24:16.112Z,75.61
2018-09-24T21:26:50.101Z,76.70
2018-09-24T21:29:24.025Z,76.18
2018-09-24T21:31:58.055Z,76.27
2018-09-24T21:34:32.189Z,76.94
2018-09-24T21:37:06.250Z,75.97
2018-09-24T21:39:40.373Z,77.29
2018-09-24T21:42:14.338Z,78.36
2018-09-24T21:44:48.388Z,78.65
2018-09-24T21:47:22.310Z,81.65
2018-09-24T21:49:56.561Z,85.71
2018-09-24T21:52:30.651Z,89.59
2018-09-24T21:55:04.818Z,89.85
2018-09-24T21:57:38.742Z,90.43
2018-09-24T22:00:19.539Z,93.67
2018-09-24T22:02:53.458Z,96.77
2018-09-24T22:05:27.438Z,95.69
2018-09-24T22:08:01.409Z,98.33
2018-09-24T22:10:35.494Z,97.98
2018-09-24T22:13:09.527Z,97.92
2018-09-24T22:15:43.788Z,97.69
2018-09-24T22:18:17.701Z,98.67
2018-09-24T22:20:51.695Z,98.35
2018-09-24T22:23:25.618Z,99.85
2018-09-24T22:25:59.600Z,98.95
2018-09-24T22:28:33.737Z,100.00
2018-09-24T22:31:07.838Z,100.00
2018-09-24T22:33:42.007Z,100.00
2018-09-24T22:36:16.241Z,100.00
2018-09-24T22:38:50.163Z,99.78
2018-09-24T22:41:24.132Z,100.00
2018-09-24T22:43:58.128Z,100.00
2018-09-24T22:46:32.287Z,100.00
2018-09-24T22:49:06.420Z,100.00
2018-09-24T22:51:40.467Z,100.00
2018-09-24T22:54:14.286Z,100.00
2018-09-24T22:56:48.210Z,100.00
2018-09-24T22:59:22.228Z,100.00
2018-09-24T23:01:56.311Z,100.00
2018-09-24T23:04:30.254Z,100.00
2018-09-24T23:07:04.215Z,100.00
2018-09-24T23:09:38.145Z,100.00
2018-09-24T23:12:12.247Z,100.00
2018-09-24T23:14:46.124Z,100.00
2018-09-24T23:17:20.159Z,100.00
2018-09-24T23:19:54.157Z,100.00
2018-09-24T23:22:28.047Z,100.00
2018-09-24T23:25:02.039Z,100.00
2018-09-24T23:27:35.993Z,100.00
2018-09-24T23:30:09.971Z,100.00
2018-09-24T23:32:43.855Z,100.00
2018-09-24T23:35:17.802Z,100.00
2018-09-24T23:37:51.829Z,100.00
2018-09-24T23:40:25.743Z,100.00
2018-09-24T23:42:59.890Z,100.00
2018-09-24T23:45:33.842Z,100.00
2018-09-24T23:48:08.016Z,99.24
2018-09-24T23:50:42.078Z,100.00
2018-09-24T23:53:15.991Z,100.00
2018-09-24T23:55:49.981Z,99.68
2018-09-24T23:58:23.914Z,99.75
